Time;durP1;ratioP1;P1;durP2;ratioP2;P2;SDS_P1;SDS_P2;PMS_P1;PMS_P2;Temp;Humidity;BMP_temperature;BMP_pressure;BME280_temperature;BME280_humidity;BME280_pressure;Samples;Min_cycle;Max_cycle;Signal;HPM_P1;HPM_P2
2021/03/01 00:00:28;;;;;;;26.92;16.50;;;4.20;99.90;;;;;;4984596;28;20065;-71
2021/03/01 00:02:54;;;;;;;30.63;16.50;;;4.20;99.90;;;;;;4986156;28;20481;-71
2021/03/01 00:05:20;;;;;;;26.42;16.00;;;4.10;99.90;;;;;;4984223;28;20041;-75
2021/03/01 00:07:46;;;;;;;27.20;16.20;;;4.10;99.90;;;;;;4986324;28;20093;-71
2021/03/01 00:10:12;;;;;;;26.90;17.48;;;4.10;99.90;;;;;;4979618;28;20027;-71
2021/03/01 00:12:39;;;;;;;25.33;15.93;;;4.10;99.90;;;;;;4966368;28;20258;-71
2021/03/01 00:15:06;;;;;;;26.33;16.00;;;4.10;99.90;;;;;;4966512;28;20027;-71
2021/03/01 00:17:32;;;;;;;26.88;14.70;;;4.00;99.90;;;;;;4984604;28;20046;-71
2021/03/01 00:19:57;;;;;;;24.25;14.95;;;4.00;99.90;;;;;;4988693;28;20034;-71
2021/03/01 00:22:23;;;;;;;28.10;15.90;;;4.00;99.90;;;;;;4988538;28;20401;-71
2021/03/01 00:24:49;;;;;;;24.60;15.48;;;4.00;99.90;;;;;;4988935;28;20034;-71
2021/03/01 00:27:14;;;;;;;26.27;14.98;;;3.90;99.90;;;;;;4987262;28;20042;-71
2021/03/01 00:29:40;;;;;;;24.65;14.07;;;4.00;99.90;;;;;;4988301;28;20113;-71
2021/03/01 00:32:06;;;;;;;27.80;14.65;;;3.90;99.90;;;;;;4981541;28;20046;-71
2021/03/01 00:34:32;;;;;;;26.92;14.48;;;3.90;99.90;;;;;;4968145;28;20035;-71
2021/03/01 00:36:57;;;;;;;26.48;15.13;;;3.80;99.90;;;;;;4971590;28;20054;-71
2021/03/01 00:39:23;;;;;;;26.30;14.52;;;3.80;99.90;;;;;;4987742;28;20117;-71
2021/03/01 00:41:49;;;;;;;23.80;15.43;;;3.80;99.90;;;;;;4987051;28;20044;-71
2021/03/01 00:44:15;;;;;;;25.83;16.55;;;3.80;99.90;;;;;;4982465;28;20426;-71
2021/03/01 00:46:40;;;;;;;28.10;16.30;;;3.80;99.90;;;;;;4970157;28;20026;-76
2021/03/01 00:49:06;;;;;;;31.13;17.40;;;3.80;99.90;;;;;;4970421;28;20122;-71
2021/03/01 00:51:32;;;;;;;30.88;17.38;;;3.80;99.90;;;;;;4963980;28;20046;-71
2021/03/01 00:53:58;;;;;;;27.63;16.35;;;3.80;99.90;;;;;;4970403;28;20105;-71
2021/03/01 00:56:23;;;;;;;26.67;17.40;;;3.70;99.90;;;;;;4984097;28;20068;-76
2021/03/01 00:58:49;;;;;;;32.20;19.20;;;3.70;99.90;;;;;;4988490;28;20114;-71
2021/03/01 01:01:15;;;;;;;29.05;18.02;;;3.70;99.90;;;;;;4987632;28;20069;-71
2021/03/01 01:03:40;;;;;;;31.00;18.10;;;3.60;99.90;;;;;;4988345;28;20022;-71
2021/03/01 01:06:06;;;;;;;31.08;17.88;;;3.60;99.90;;;;;;4985851;28;20081;-71
2021/03/01 01:08:32;;;;;;;26.00;15.75;;;3.60;99.90;;;;;;4987660;28;20034;-71
2021/03/01 01:10:57;;;;;;;27.58;16.08;;;3.60;99.90;;;;;;4987470;28;20129;-71
2021/03/01 01:13:23;;;;;;;32.22;17.65;;;3.60;99.90;;;;;;4989047;28;20313;-75
2021/03/01 01:15:49;;;;;;;29.45;18.20;;;3.60;99.90;;;;;;4988171;28;20038;-71
2021/03/01 01:18:14;;;;;;;31.05;17.75;;;3.50;99.90;;;;;;4988616;28;20037;-76
2021/03/01 01:20:40;;;;;;;30.38;17.83;;;3.60;99.90;;;;;;4986982;28;20039;-71
2021/03/01 01:23:06;;;;;;;29.52;17.00;;;3.50;99.90;;;;;;4987982;28;20057;-71
2021/03/01 01:25:31;;;;;;;26.85;15.35;;;3.50;99.90;;;;;;4985892;28;20316;-71
2021/03/01 01:27:57;;;;;;;27.48;17.40;;;3.40;99.90;;;;;;4987474;28;20109;-72
2021/03/01 01:30:25;;;;;;;35.95;18.52;;;3.40;99.90;;;;;;4967728;28;20037;-71
2021/03/01 01:32:51;;;;;;;28.88;17.00;;;3.40;99.90;;;;;;4987271;28;20489;-71
2021/03/01 01:35:18;;;;;;;32.22;16.80;;;3.40;99.90;;;;;;4986356;28;20049;-71
2021/03/01 01:37:45;;;;;;;29.92;17.10;;;3.30;99.90;;;;;;4987843;28;20511;-71
2021/03/01 01:40:13;;;;;;;29.17;16.80;;;3.30;99.90;;;;;;4986961;28;20038;-71
2021/03/01 01:42:39;;;;;;;28.00;16.70;;;3.30;99.90;;;;;;4987958;28;20065;-71
2021/03/01 01:45:10;;;;;;;27.02;15.80;;;3.30;99.90;;;;;;4988076;28;20034;-71
2021/03/01 01:47:36;;;;;;;31.20;16.10;;;3.30;99.90;;;;;;4986993;28;20442;-71
2021/03/01 01:50:06;;;;;;;24.73;14.45;;;3.20;99.90;;;;;;5001862;28;20096;-71
2021/03/01 01:52:32;;;;;;;27.20;14.55;;;3.20;99.90;;;;;;4985681;28;20053;-71
2021/03/01 01:54:59;;;;;;;25.58;15.05;;;3.10;99.90;;;;;;4987923;28;20899;-71
2021/03/01 01:57:25;;;;;;;27.10;14.85;;;3.10;99.90;;;;;;4986985;28;20038;-75
2021/03/01 01:59:51;;;;;;;22.60;14.07;;;3.10;99.90;;;;;;4987983;28;20046;-71
2021/03/01 02:02:17;;;;;;;28.40;15.10;;;3.10;99.90;;;;;;4985863;28;20450;-71
2021/03/01 02:04:48;;;;;;;24.20;15.05;;;3.00;99.90;;;;;;4988278;28;20034;-71
2021/03/01 02:07:35;;;;;;;24.60;14.20;;;3.00;99.90;;;;;;4987538;28;20031;-71
2021/03/01 02:10:20;;;;;;;25.80;15.50;;;3.10;99.90;;;;;;4983265;28;20496;-75
2021/03/01 02:13:17;;;;;;;28.35;15.38;;;3.00;99.90;;;;;;4984937;28;20165;-71
2021/03/01 02:15:52;;;;;;;25.52;15.45;;;3.00;99.90;;;;;;4986527;28;20121;-71
2021/03/01 02:18:17;;;;;;;26.63;15.15;;;3.00;99.90;;;;;;4987335;28;20077;-71
2021/03/01 02:20:44;;;;;;;26.77;14.93;;;2.90;99.90;;;;;;4987949;28;20038;-71
2021/03/01 02:23:12;;;;;;;25.23;16.15;;;2.90;99.90;;;;;;4987217;28;20097;-71
2021/03/01 02:25:47;;;;;;;26.90;15.45;;;2.80;99.90;;;;;;4986114;28;20030;-71
2021/03/01 02:28:14;;;;;;;27.15;15.90;;;2.80;99.90;;;;;;4985865;28;20026;-70
2021/03/01 02:30:48;;;;;;;29.42;16.00;;;2.80;99.90;;;;;;4987440;28;20069;-71
2021/03/01 02:33:20;;;;;;;27.60;14.85;;;2.80;99.90;;;;;;4987465;28;20022;-71
2021/03/01 02:35:54;;;;;;;25.73;15.97;;;2.80;99.90;;;;;;4986952;28;20517;-71
2021/03/01 02:38:24;;;;;;;26.65;15.50;;;2.80;99.90;;;;;;4987145;28;20272;-71
2021/03/01 02:40:50;;;;;;;24.90;16.10;;;2.80;99.90;;;;;;4985790;28;20037;-76
2021/03/01 02:43:17;;;;;;;28.15;16.73;;;2.80;99.90;;;;;;4986734;28;20572;-71
2021/03/01 02:45:45;;;;;;;25.52;15.90;;;2.80;99.90;;;;;;4986895;28;20026;-75
2021/03/01 02:48:12;;;;;;;25.35;15.77;;;2.80;99.90;;;;;;4986948;28;20027;-71
2021/03/01 02:50:39;;;;;;;32.47;16.63;;;2.80;99.90;;;;;;4986768;28;20347;-70
2021/03/01 02:53:05;;;;;;;23.95;15.80;;;2.70;99.90;;;;;;4986414;28;20072;-75
2021/03/01 02:55:31;;;;;;;29.13;16.00;;;2.70;99.90;;;;;;4977915;28;20074;-70
2021/03/01 02:57:58;;;;;;;26.35;15.35;;;2.70;99.90;;;;;;4967896;28;20512;-74
2021/03/01 03:00:24;;;;;;;26.13;15.23;;;2.60;99.90;;;;;;4970880;28;20089;-70
2021/03/01 03:02:51;;;;;;;26.17;15.00;;;2.60;99.90;;;;;;4987336;28;20033;-71
2021/03/01 03:05:19;;;;;;;29.10;15.10;;;2.60;99.90;;;;;;4981978;28;20044;-71
2021/03/01 03:07:47;;;;;;;23.92;14.55;;;2.60;99.90;;;;;;4967559;28;20046;-70
2021/03/01 03:10:15;;;;;;;25.27;15.63;;;2.60;99.90;;;;;;4970397;28;20088;-69
2021/03/01 03:12:42;;;;;;;26.02;15.65;;;2.60;99.90;;;;;;4972503;28;20458;-71
2021/03/01 03:15:18;;;;;;;25.55;15.73;;;2.60;99.90;;;;;;4969819;28;20053;-71
2021/03/01 03:17:44;;;;;;;26.38;15.77;;;2.60;99.90;;;;;;4985449;28;20062;-71
2021/03/01 03:20:11;;;;;;;29.33;15.40;;;2.60;99.90;;;;;;4985352;28;20034;-75
2021/03/01 03:22:37;;;;;;;26.73;17.33;;;2.50;99.90;;;;;;4966767;28;20041;-71
2021/03/01 03:25:04;;;;;;;30.52;17.65;;;2.50;99.90;;;;;;4966607;28;20466;-71
2021/03/01 03:27:29;;;;;;;39.08;19.95;;;2.50;99.90;;;;;;4982087;28;20488;-71
2021/03/01 03:29:55;;;;;;;32.45;18.70;;;2.50;99.90;;;;;;4986250;28;20049;-71
2021/03/01 03:32:21;;;;;;;29.85;17.55;;;2.50;99.90;;;;;;4972476;28;20034;-71
2021/03/01 03:34:46;;;;;;;27.27;18.00;;;2.40;99.90;;;;;;4967111;28;20042;-71
2021/03/01 03:37:20;;;;;;;32.55;19.15;;;2.50;99.90;;;;;;4974244;28;20028;-76
2021/03/01 03:39:48;;;;;;;31.02;19.08;;;2.40;99.90;;;;;;4976867;28;20038;-75
2021/03/01 03:42:22;;;;;;;33.00;18.08;;;2.30;99.90;;;;;;4982975;28;20485;-71
2021/03/01 03:44:51;;;;;;;33.00;19.38;;;2.40;99.90;;;;;;4985779;28;20030;-70
2021/03/01 03:47:18;;;;;;;31.45;19.35;;;2.40;99.90;;;;;;4976898;28;20035;-71
2021/03/01 03:49:45;;;;;;;28.83;20.23;;;2.40;99.90;;;;;;4967170;28;20109;-71
2021/03/01 03:52:14;;;;;;;34.13;20.35;;;2.40;99.90;;;;;;4970010;28;20508;-71
2021/03/01 03:54:43;;;;;;;32.35;19.85;;;2.30;99.90;;;;;;4985759;28;20037;-71
2021/03/01 03:57:14;;;;;;;29.75;18.40;;;2.40;99.90;;;;;;4983171;28;20098;-71
2021/03/01 03:59:41;;;;;;;30.17;18.83;;;2.40;99.90;;;;;;4986421;28;20549;-71
2021/03/01 04:02:09;;;;;;;31.05;19.60;;;2.40;99.90;;;;;;4984172;28;20108;-76
2021/03/01 04:04:37;;;;;;;33.17;18.67;;;2.30;99.90;;;;;;4986744;28;20030;-71
2021/03/01 04:07:05;;;;;;;30.27;19.17;;;2.30;99.90;;;;;;4985141;28;20101;-71
2021/03/01 04:09:32;;;;;;;31.30;19.02;;;2.30;99.90;;;;;;4966727;28;20087;-71
2021/03/01 04:11:58;;;;;;;30.95;19.70;;;2.30;99.90;;;;;;4965870;28;20038;-71
2021/03/01 04:14:25;;;;;;;29.02;17.95;;;2.30;99.90;;;;;;4983107;28;20146;-71
2021/03/01 04:16:56;;;;;;;28.08;18.73;;;2.30;99.90;;;;;;4985501;28;20141;-71
2021/03/01 04:19:23;;;;;;;30.05;19.77;;;2.30;99.90;;;;;;4984177;28;20157;-75
2021/03/01 04:21:59;;;;;;;37.13;19.17;;;2.20;99.90;;;;;;4984964;28;20141;-71
2021/03/01 04:24:27;;;;;;;32.33;19.10;;;2.20;99.90;;;;;;4970629;28;20065;-71
2021/03/01 04:26:53;;;;;;;28.77;19.30;;;2.20;99.90;;;;;;4966379;28;20065;-71
2021/03/01 04:29:21;;;;;;;35.95;19.60;;;2.20;99.90;;;;;;4964994;28;20081;-71
2021/03/01 04:31:48;;;;;;;36.58;20.52;;;2.20;99.90;;;;;;4965041;28;20047;-71
2021/03/01 04:34:19;;;;;;;34.50;20.58;;;2.10;99.90;;;;;;4965156;28;20134;-71
2021/03/01 04:36:45;;;;;;;33.17;20.40;;;2.10;99.90;;;;;;4966332;28;20030;-71
2021/03/01 04:39:10;;;;;;;36.25;20.38;;;2.10;99.90;;;;;;4972467;28;20039;-71
2021/03/01 04:41:37;;;;;;;33.83;21.55;;;2.10;99.90;;;;;;4985579;28;20041;-76
2021/03/01 04:44:04;;;;;;;41.88;21.83;;;2.10;99.90;;;;;;4978893;28;20027;-71
2021/03/01 04:46:31;;;;;;;36.13;20.13;;;2.00;99.90;;;;;;4966124;28;20541;-71
2021/03/01 04:49:00;;;;;;;31.80;18.38;;;2.00;99.90;;;;;;4964137;28;20130;-71
2021/03/01 04:51:26;;;;;;;31.75;19.45;;;2.00;99.90;;;;;;4983226;28;20038;-71
2021/03/01 04:53:57;;;;;;;31.83;18.45;;;2.00;99.90;;;;;;4982545;28;20039;-71
2021/03/01 04:56:24;;;;;;;33.20;19.45;;;2.00;99.90;;;;;;4984339;28;20549;-71
2021/03/01 04:58:51;;;;;;;33.70;19.30;;;2.00;99.90;;;;;;4983226;28;20478;-71
2021/03/01 05:01:18;;;;;;;31.52;18.65;;;2.00;99.90;;;;;;4983886;28;20050;-71
2021/03/01 05:03:45;;;;;;;30.08;18.52;;;1.90;99.90;;;;;;4983400;28;20026;-71
2021/03/01 05:06:12;;;;;;;31.02;18.98;;;1.90;99.90;;;;;;4987685;28;20022;-70
2021/03/01 05:08:39;;;;;;;29.20;17.65;;;1.90;99.90;;;;;;4986913;28;20070;-70
2021/03/01 05:11:06;;;;;;;34.38;19.23;;;1.90;99.90;;;;;;4988394;28;20041;-70
2021/03/01 05:13:32;;;;;;;27.10;18.35;;;1.90;99.90;;;;;;4986903;28;20323;-71
2021/03/01 05:15:58;;;;;;;29.40;17.42;;;1.90;99.90;;;;;;4988964;28;20512;-71
2021/03/01 05:18:23;;;;;;;37.00;19.80;;;1.90;99.90;;;;;;4987854;28;20490;-71
2021/03/01 05:20:49;;;;;;;28.63;18.70;;;1.90;99.90;;;;;;4969788;28;20537;-75
2021/03/01 05:23:15;;;;;;;30.15;18.42;;;1.70;99.90;;;;;;4969115;28;20465;-70
2021/03/01 05:25:40;;;;;;;32.33;18.50;;;1.80;99.90;;;;;;4984012;28;20030;-70
2021/03/01 05:28:06;;;;;;;29.45;17.98;;;1.80;99.90;;;;;;4987152;28;20525;-71
2021/03/01 05:30:32;;;;;;;28.77;17.55;;;1.80;99.90;;;;;;4987218;28;20038;-71
2021/03/01 05:32:57;;;;;;;33.17;18.92;;;1.80;99.90;;;;;;4988439;28;20177;-70
2021/03/01 05:35:24;;;;;;;30.95;19.90;;;1.80;99.90;;;;;;4975754;28;20039;-71
2021/03/01 05:37:49;;;;;;;32.67;20.13;;;1.80;99.90;;;;;;4968154;28;20562;-70
2021/03/01 05:40:15;;;;;;;30.98;19.05;;;1.80;99.90;;;;;;4965043;28;20501;-70
2021/03/01 05:42:42;;;;;;;41.50;21.10;;;1.80;99.90;;;;;;4980539;28;20019;-70
2021/03/01 05:45:10;;;;;;;38.05;21.45;;;1.70;99.90;;;;;;4972395;28;20026;-70
2021/03/01 05:47:36;;;;;;;35.90;21.42;;;1.70;99.90;;;;;;4978806;28;20592;-70
2021/03/01 05:50:04;;;;;;;37.17;20.77;;;1.70;99.90;;;;;;4973709;28;20124;-71
2021/03/01 05:52:32;;;;;;;38.25;22.52;;;1.70;99.90;;;;;;4978913;28;20041;-70
2021/03/01 05:55:00;;;;;;;39.55;22.40;;;1.70;99.90;;;;;;4980528;28;20051;-70
2021/03/01 05:57:27;;;;;;;41.35;23.20;;;1.70;99.90;;;;;;4972910;28;20026;-70
2021/03/01 05:59:54;;;;;;;34.70;20.95;;;1.70;99.90;;;;;;4978201;28;20488;-71
2021/03/01 06:02:20;;;;;;;36.13;22.83;;;1.70;99.90;;;;;;4985582;28;20473;-70
2021/03/01 06:04:46;;;;;;;38.28;23.92;;;1.70;99.90;;;;;;4986278;28;20114;-70
2021/03/01 06:07:12;;;;;;;37.85;23.23;;;1.70;99.90;;;;;;4985245;28;20101;-76
2021/03/01 06:09:39;;;;;;;38.50;22.83;;;1.70;99.90;;;;;;4987015;28;20047;-70
2021/03/01 06:12:06;;;;;;;37.38;22.65;;;1.70;99.90;;;;;;4963232;28;20053;-71
2021/03/01 06:14:32;;;;;;;36.28;21.85;;;1.70;99.90;;;;;;4966321;28;20133;-71
2021/03/01 06:17:17;;;;;;;39.70;21.40;;;1.70;99.90;;;;;;4964473;28;20096;-71
2021/03/01 06:19:45;;;;;;;42.25;23.63;;;1.70;99.90;;;;;;4964455;28;20042;-70
2021/03/01 06:22:11;;;;;;;40.65;24.90;;;1.60;99.90;;;;;;4965084;28;20019;-71
2021/03/01 06:24:37;;;;;;;41.47;25.40;;;1.60;99.90;;;;;;4966200;28;20120;-76
2021/03/01 06:27:03;;;;;;;36.60;23.05;;;1.60;99.90;;;;;;4966338;28;20047;-71
2021/03/01 06:29:28;;;;;;;39.17;21.65;;;1.60;99.90;;;;;;4966744;28;20035;-70
2021/03/01 06:31:55;;;;;;;37.38;23.02;;;1.50;99.90;;;;;;4967710;28;20489;-70
2021/03/01 06:34:29;;;;;;;39.67;23.08;;;1.60;99.90;;;;;;4965897;28;20073;-70
2021/03/01 06:37:12;;;;;;;38.80;22.13;;;1.60;99.90;;;;;;4966220;28;20485;-71
2021/03/01 06:39:51;;;;;;;39.70;21.35;;;1.60;99.90;;;;;;4967579;28;20129;-70
2021/03/01 06:42:18;;;;;;;31.13;21.13;;;1.60;99.90;;;;;;4966768;28;20482;-71
2021/03/01 06:44:59;;;;;;;34.85;22.05;;;1.60;99.90;;;;;;4965740;28;20030;-71
2021/03/01 06:47:51;;;;;;;36.60;22.17;;;1.60;99.90;;;;;;4965625;28;20038;-75
2021/03/01 06:50:32;;;;;;;35.65;22.33;;;1.70;99.90;;;;;;4964975;28;20155;-70
2021/03/01 06:53:05;;;;;;;34.38;22.25;;;1.70;99.90;;;;;;4965270;28;20446;-71
2021/03/01 06:55:32;;;;;;;38.80;22.88;;;1.70;99.90;;;;;;4966659;28;20380;-76
2021/03/01 06:58:13;;;;;;;39.60;23.02;;;1.60;99.90;;;;;;4965313;28;20600;-71
2021/03/01 07:00:39;;;;;;;45.90;24.27;;;1.70;99.90;;;;;;4958941;28;20054;-76
2021/03/01 07:03:17;;;;;;;37.28;23.08;;;1.70;99.90;;;;;;4960331;28;20035;-70
2021/03/01 07:05:57;;;;;;;37.15;21.92;;;1.70;99.90;;;;;;4964878;28;20351;-71
2021/03/01 07:08:49;;;;;;;41.08;23.63;;;1.70;99.90;;;;;;4970119;28;20038;-71
2021/03/01 07:11:23;;;;;;;36.65;22.48;;;1.80;99.90;;;;;;4969116;28;20029;-71
2021/03/01 07:13:49;;;;;;;44.20;23.50;;;1.80;99.90;;;;;;4947874;28;20542;-71
2021/03/01 07:16:16;;;;;;;42.25;24.08;;;1.80;99.90;;;;;;4967413;28;20125;-71
2021/03/01 07:18:42;;;;;;;38.90;23.42;;;1.80;99.90;;;;;;4965670;28;20041;-71
2021/03/01 07:21:13;;;;;;;42.33;25.13;;;1.90;99.90;;;;;;4964459;28;20082;-70
2021/03/01 07:23:44;;;;;;;42.60;24.35;;;1.90;99.90;;;;;;4971459;28;20085;-71
2021/03/01 07:26:11;;;;;;;54.63;26.90;;;2.00;99.90;;;;;;4957258;28;20514;-71
2021/03/01 07:29:03;;;;;;;51.40;26.70;;;2.10;99.90;;;;;;4965718;28;20023;-71
2021/03/01 07:31:32;;;;;;;42.75;26.00;;;2.10;99.90;;;;;;4952467;28;20050;-71
2021/03/01 07:33:58;;;;;;;48.53;28.80;;;2.10;99.90;;;;;;4971039;28;20462;-71
2021/03/01 07:36:23;;;;;;;46.88;27.25;;;2.20;99.90;;;;;;4967602;28;20046;-71
2021/03/01 07:38:49;;;;;;;44.67;27.05;;;2.30;99.90;;;;;;4965389;28;20061;-71
2021/03/01 07:41:15;;;;;;;51.38;28.73;;;2.30;99.90;;;;;;4966807;28;20041;-71
2021/03/01 07:43:43;;;;;;;47.42;29.45;;;2.40;99.90;;;;;;4965492;28;20034;-71
2021/03/01 07:46:09;;;;;;;53.13;30.10;;;2.50;99.90;;;;;;4970304;28;20123;-71
2021/03/01 07:48:40;;;;;;;58.03;31.27;;;2.60;99.90;;;;;;4964586;28;20034;-71
2021/03/01 07:51:06;;;;;;;54.72;30.23;;;2.60;99.90;;;;;;4967296;28;20037;-75
2021/03/01 07:53:49;;;;;;;55.08;31.58;;;2.70;99.90;;;;;;4968737;28;20070;-71
2021/03/01 07:56:23;;;;;;;;;;;2.80;99.90;;;;;;4971765;28;20056;-76
2021/03/01 07:59:09;;;;;;;48.95;28.33;;;2.90;99.90;;;;;;4965654;28;19918;-71
2021/03/01 08:01:36;;;;;;;56.88;31.17;;;2.90;99.90;;;;;;4967698;28;20077;-71
2021/03/01 08:04:03;;;;;;;54.78;31.90;;;3.00;99.90;;;;;;4965285;28;20467;-71
2021/03/01 08:06:57;;;;;;;53.53;29.42;;;3.10;99.90;;;;;;4968911;28;20039;-71
2021/03/01 08:09:49;;;;;;;64.20;33.50;;;3.20;99.90;;;;;;4964834;28;20540;-71
2021/03/01 08:12:35;;;;;;;53.60;32.50;;;3.30;99.90;;;;;;4965853;28;20046;-71
2021/03/01 08:15:07;;;;;;;50.60;29.80;;;3.40;99.90;;;;;;4958701;28;20394;-76
2021/03/01 08:17:37;;;;;;;;;;;3.50;99.90;;;;;;4970135;28;20090;-71
2021/03/01 08:20:15;;;;;;;53.80;28.98;;;3.60;99.90;;;;;;4969825;28;19983;-71
2021/03/01 08:23:06;;;;;;;49.60;28.15;;;3.70;99.90;;;;;;4973400;28;20039;-71
2021/03/01 08:25:51;;;;;;;47.55;28.55;;;3.80;99.90;;;;;;4967096;28;20042;-71
2021/03/01 08:28:22;;;;;;;45.00;28.27;;;3.90;99.90;;;;;;4967979;28;20046;-71
2021/03/01 08:31:14;;;;;;;47.47;27.02;;;4.10;99.90;;;;;;4966985;28;20035;-71
2021/03/01 08:33:40;;;;;;;50.70;27.38;;;4.10;99.90;;;;;;4968583;28;20054;-71
2021/03/01 08:36:25;;;;;;;51.55;29.38;;;4.00;99.90;;;;;;4965377;28;20049;-71
2021/03/01 08:38:56;;;;;;;44.70;25.77;;;4.00;99.90;;;;;;4968320;28;20030;-71
2021/03/01 08:41:31;;;;;;;45.55;26.80;;;4.30;99.90;;;;;;4971331;28;20407;-71
2021/03/01 08:43:58;;;;;;;55.33;26.65;;;4.40;99.90;;;;;;4989913;28;20090;-71
2021/03/01 08:46:24;;;;;;;41.58;25.27;;;4.40;99.90;;;;;;4971018;28;20422;-71
2021/03/01 08:48:55;;;;;;;44.50;27.42;;;4.60;99.90;;;;;;4975224;28;20038;-71
2021/03/01 08:51:21;;;;;;;48.78;24.98;;;4.70;99.90;;;;;;4972469;28;20060;-71
2021/03/01 08:53:51;;;;;;;56.80;26.02;;;4.60;99.90;;;;;;4972246;28;20042;-71
2021/03/01 08:56:21;;;;;;;49.65;27.48;;;4.70;99.90;;;;;;4984995;28;20555;-71
2021/03/01 08:58:46;;;;;;;45.63;27.40;;;4.70;99.90;;;;;;4990477;28;20049;-71
2021/03/01 09:01:12;;;;;;;46.50;28.80;;;4.70;99.90;;;;;;4989683;28;20417;-76
2021/03/01 09:03:40;;;;;;;44.47;30.33;;;4.80;99.90;;;;;;4989489;28;20030;-71
2021/03/01 09:06:10;;;;;;;49.92;26.92;;;4.90;99.90;;;;;;4986714;28;20045;-71
2021/03/01 09:08:38;;;;;;;43.10;24.98;;;4.90;99.90;;;;;;4989933;28;20344;-71
2021/03/01 09:11:10;;;;;;;50.42;27.13;;;5.00;99.90;;;;;;4989333;28;20027;-72
2021/03/01 09:13:36;;;;;;;39.45;21.95;;;5.10;99.90;;;;;;4989054;28;20105;-76
2021/03/01 09:16:17;;;;;;;38.35;20.17;;;5.50;99.90;;;;;;4986115;28;20052;-71
2021/03/01 09:18:46;;;;;;;40.70;22.77;;;5.80;99.90;;;;;;4970149;28;20030;-76
2021/03/01 09:21:17;;;;;;;38.33;22.05;;;6.10;99.90;;;;;;4985333;28;20061;-71
2021/03/01 09:23:50;;;;;;;38.10;24.20;;;6.30;99.90;;;;;;4984444;28;20026;-71
2021/03/01 09:26:26;;;;;;;43.03;22.92;;;6.30;99.90;;;;;;4985774;28;20030;-71
2021/03/01 09:28:54;;;;;;;44.65;24.90;;;6.50;99.90;;;;;;4987619;28;20054;-71
2021/03/01 09:31:20;;;;;;;37.92;22.50;;;6.60;99.90;;;;;;4985552;28;20042;-71
2021/03/01 09:33:46;;;;;;;41.38;24.17;;;6.70;99.90;;;;;;4988271;28;20037;-71
2021/03/01 09:36:13;;;;;;;42.33;25.02;;;6.50;99.90;;;;;;4987694;28;20482;-76
2021/03/01 09:38:40;;;;;;;40.50;23.42;;;6.70;99.90;;;;;;4986657;28;20153;-71
2021/03/01 09:41:12;;;;;;;48.38;23.63;;;6.90;99.90;;;;;;4984647;28;20053;-71
2021/03/01 09:43:42;;;;;;;46.15;24.05;;;7.10;99.90;;;;;;4986211;28;20622;-72
2021/03/01 09:46:08;;;;;;;45.10;24.33;;;7.20;99.90;;;;;;4988830;28;20034;-72
2021/03/01 09:48:57;;;;;;;37.60;24.75;;;6.70;99.90;;;;;;4987806;28;20030;-76
2021/03/01 09:51:24;;;;;;;38.65;24.15;;;6.90;99.90;;;;;;4987992;28;20477;-72
2021/03/01 09:53:50;;;;;;;44.17;25.23;;;7.10;99.90;;;;;;4988577;28;20030;-72
2021/03/01 09:56:16;;;;;;;40.33;23.02;;;7.20;99.90;;;;;;4976954;28;20768;-71
2021/03/01 09:58:43;;;;;;;39.97;24.15;;;7.30;99.90;;;;;;4972214;28;20022;-71
2021/03/01 10:01:17;;;;;;;42.47;22.35;;;7.30;99.90;;;;;;4978484;28;20505;-71
2021/03/01 10:03:47;;;;;;;45.28;24.10;;;7.50;99.90;;;;;;4970147;28;20477;-71
2021/03/01 10:06:15;;;;;;;44.58;24.48;;;7.50;99.90;;;;;;4969470;28;20062;-72
2021/03/01 10:08:42;;;;;;;37.10;24.75;;;7.80;99.90;;;;;;4970295;28;20030;-71
2021/03/01 10:11:22;;;;;;;44.90;23.50;;;7.60;99.90;;;;;;4969540;28;20035;-71
2021/03/01 10:13:48;;;;;;;37.47;22.17;;;7.50;99.90;;;;;;4966932;28;20069;-71
2021/03/01 10:16:28;;;;;;;36.25;22.48;;;7.30;99.90;;;;;;4977145;28;20377;-71
2021/03/01 10:18:54;;;;;;;34.28;19.45;;;7.30;99.90;;;;;;4972101;28;20485;-71
2021/03/01 10:21:33;;;;;;;41.00;22.65;;;7.50;99.90;;;;;;4966080;28;20035;-71
2021/03/01 10:24:06;;;;;;;35.65;20.27;;;7.60;99.90;;;;;;4964721;28;20144;-76
2021/03/01 10:26:31;;;;;;;39.15;20.08;;;7.50;99.90;;;;;;4972417;28;20038;-71
2021/03/01 10:29:00;;;;;;;31.45;19.25;;;7.60;99.90;;;;;;4968149;28;20397;-71
2021/03/01 10:31:32;;;;;;;34.13;18.38;;;7.90;99.90;;;;;;4967754;28;20125;-76
2021/03/01 10:34:03;;;;;;;38.90;19.33;;;8.00;99.90;;;;;;4972587;28;20041;-72
2021/03/01 10:36:35;;;;;;;33.53;20.33;;;8.10;99.90;;;;;;4967662;28;20038;-71
2021/03/01 10:39:08;;;;;;;32.55;19.42;;;8.30;99.90;;;;;;4971136;28;20043;-72
2021/03/01 10:41:46;;;;;;;34.47;19.65;;;8.70;99.90;;;;;;4970672;28;20603;-71
2021/03/01 10:44:13;;;;;;;32.70;17.88;;;8.50;99.90;;;;;;4968008;28;20373;-71
2021/03/01 10:46:41;;;;;;;32.08;19.67;;;8.40;99.90;;;;;;4967406;28;20037;-71
2021/03/01 10:49:16;;;;;;;30.20;19.50;;;8.40;99.90;;;;;;4960305;28;20055;-76
2021/03/01 10:51:42;;;;;;;31.45;20.23;;;8.60;99.90;;;;;;4970125;28;20114;-71
2021/03/01 10:54:08;;;;;;;37.42;18.63;;;8.60;99.90;;;;;;4966335;28;20362;-72
2021/03/01 10:56:34;;;;;;;30.67;18.60;;;8.50;99.90;;;;;;4969038;28;20042;-72
2021/03/01 10:59:00;;;;;;;28.13;17.33;;;8.90;99.90;;;;;;4965536;28;20035;-76
2021/03/01 11:01:36;;;;;;;30.83;17.83;;;9.20;99.90;;;;;;4965643;28;20415;-71
2021/03/01 11:04:02;;;;;;;32.05;18.27;;;9.10;99.90;;;;;;4966332;28;20121;-71
2021/03/01 11:06:29;;;;;;;34.05;19.67;;;8.90;99.90;;;;;;4965515;28;20033;-76
2021/03/01 11:08:55;;;;;;;32.60;18.95;;;8.70;99.90;;;;;;4966875;28;20459;-72
2021/03/01 11:11:21;;;;;;;24.75;17.55;;;8.90;99.90;;;;;;4967653;28;20062;-72
2021/03/01 11:13:46;;;;;;;39.38;18.73;;;9.20;99.90;;;;;;4967089;28;20038;-71
2021/03/01 11:16:12;;;;;;;38.65;19.00;;;9.40;99.90;;;;;;4969154;28;20100;-72
2021/03/01 11:18:38;;;;;;;31.98;18.55;;;9.50;99.90;;;;;;4964688;28;20474;-72
2021/03/01 11:21:04;;;;;;;37.58;18.85;;;9.10;99.90;;;;;;4967487;28;20399;-71
2021/03/01 11:23:29;;;;;;;33.95;19.25;;;9.40;99.90;;;;;;4967055;28;20073;-71
2021/03/01 11:25:55;;;;;;;28.77;19.00;;;9.50;99.90;;;;;;4985911;28;20377;-71
2021/03/01 11:28:20;;;;;;;27.83;19.10;;;9.40;99.90;;;;;;4965561;28;20154;-72
2021/03/01 11:30:47;;;;;;;29.85;18.05;;;9.60;99.90;;;;;;4969307;28;20081;-72
2021/03/01 11:33:12;;;;;;;30.10;19.58;;;10.00;99.90;;;;;;4983198;28;20039;-71
2021/03/01 11:35:38;;;;;;;32.55;18.90;;;9.90;99.90;;;;;;4969129;28;20082;-71
2021/03/01 11:38:04;;;;;;;34.13;18.42;;;10.00;99.90;;;;;;4964472;28;20092;-76
2021/03/01 11:40:29;;;;;;;28.98;18.80;;;10.30;99.90;;;;;;4969894;28;20038;-72
2021/03/01 11:42:56;;;;;;;26.35;16.20;;;10.40;99.90;;;;;;4964913;28;20093;-72
2021/03/01 11:45:22;;;;;;;25.52;15.98;;;10.50;99.90;;;;;;4971183;28;20100;-72
2021/03/01 11:47:47;;;;;;;32.78;17.85;;;10.50;99.90;;;;;;4969424;28;20043;-71
2021/03/01 11:50:13;;;;;;;29.02;16.92;;;10.50;99.90;;;;;;4966293;28;20031;-72
2021/03/01 11:52:39;;;;;;;27.55;17.63;;;10.60;99.90;;;;;;4965902;28;20046;-71
2021/03/01 11:55:05;;;;;;;35.60;18.60;;;10.70;99.90;;;;;;4964743;28;20038;-72
2021/03/01 11:57:30;;;;;;;32.80;19.05;;;10.70;99.90;;;;;;4962956;28;20077;-72
2021/03/01 11:59:56;;;;;;;27.48;17.75;;;10.60;99.90;;;;;;4966212;28;20113;-72
2021/03/01 12:02:22;;;;;;;32.78;18.42;;;10.70;99.90;;;;;;4963566;28;20379;-72
2021/03/01 12:04:47;;;;;;;25.63;17.67;;;11.10;99.90;;;;;;4965979;28;20031;-72
2021/03/01 12:07:13;;;;;;;29.27;19.92;;;11.40;99.90;;;;;;4965463;28;20402;-72
2021/03/01 12:09:39;;;;;;;39.10;20.08;;;11.50;99.90;;;;;;4966483;28;20046;-72
2021/03/01 12:12:04;;;;;;;28.05;16.90;;;11.40;99.90;;;;;;4965861;28;20457;-72
2021/03/01 12:14:30;;;;;;;30.13;18.70;;;11.30;99.90;;;;;;4968443;28;20057;-72
2021/03/01 12:16:56;;;;;;;28.90;16.88;;;11.30;99.90;;;;;;4965750;28;20049;-76
2021/03/01 12:19:21;;;;;;;26.77;16.63;;;11.50;99.90;;;;;;4966872;28;20721;-72
2021/03/01 12:21:47;;;;;;;25.35;16.17;;;11.40;99.90;;;;;;4964339;28;20475;-77
2021/03/01 12:24:14;;;;;;;29.23;16.63;;;11.00;99.90;;;;;;4963644;28;20085;-77
2021/03/01 12:26:41;;;;;;;26.25;15.98;;;10.90;99.90;;;;;;4964979;28;20031;-72
2021/03/01 12:29:07;;;;;;;25.42;15.50;;;10.70;99.90;;;;;;4964159;28;20034;-73
2021/03/01 12:31:32;;;;;;;23.98;15.23;;;10.80;99.90;;;;;;4966095;28;20393;-72
2021/03/01 12:33:58;;;;;;;23.83;14.40;;;10.90;99.90;;;;;;4964905;28;20030;-72
2021/03/01 12:36:24;;;;;;;28.77;14.50;;;10.90;99.90;;;;;;4965414;28;20725;-72
2021/03/01 12:38:49;;;;;;;29.15;15.68;;;11.10;99.90;;;;;;4967319;28;20027;-77
2021/03/01 12:41:15;;;;;;;30.80;15.73;;;11.10;99.90;;;;;;4965920;28;20046;-72
2021/03/01 12:43:41;;;;;;;32.72;15.15;;;11.10;99.90;;;;;;4966861;28;20023;-72